Time;durP1;ratioP1;P1;durP2;ratioP2;P2;SDS_P1;SDS_P2;PMS_P1;PMS_P2;Temp;Humidity;BMP_temperature;BMP_pressure;BME280_temperature;BME280_humidity;BME280_pressure;Samples;Min_cycle;Max_cycle;Signal;HPM_P1;HPM_P2
2024/04/08 00:01:26;;;;;;;5.97;1.58;;;17.30;99.90;;;;;;5065762;28;20040;-70
2024/04/08 00:03:52;;;;;;;5.45;1.90;;;17.30;99.90;;;;;;5067970;28;20040;-70
2024/04/08 00:06:17;;;;;;;7.07;1.50;;;17.20;99.90;;;;;;5068932;28;20040;-70
2024/04/08 00:08:43;;;;;;;6.00;1.23;;;17.30;99.90;;;;;;5058757;28;20128;-70
2024/04/08 00:11:09;;;;;;;7.72;1.98;;;17.20;99.90;;;;;;5068611;28;20497;-71
2024/04/08 00:13:37;;;;;;;4.80;1.65;;;17.00;99.90;;;;;;5067865;28;20107;-70
2024/04/08 00:16:04;;;;;;;5.32;1.90;;;17.10;99.90;;;;;;5062015;28;20092;-70
2024/04/08 00:18:30;;;;;;;6.75;1.52;;;17.10;99.90;;;;;;5068867;28;20024;-70
2024/04/08 00:21:02;;;;;;;3.33;1.45;;;17.10;99.90;;;;;;5068859;28;20094;-70
2024/04/08 00:23:28;;;;;;;4.45;1.70;;;17.20;99.90;;;;;;5074919;28;20040;-71
2024/04/08 00:25:55;;;;;;;7.03;1.80;;;17.20;99.90;;;;;;5068561;28;20042;-71
2024/04/08 00:28:20;;;;;;;6.75;1.55;;;17.10;99.90;;;;;;5061570;28;20039;-70
2024/04/08 00:30:46;;;;;;;3.60;1.50;;;17.00;99.90;;;;;;5064848;28;20037;-71
2024/04/08 00:33:11;;;;;;;4.57;1.75;;;17.00;99.90;;;;;;5067876;28;20124;-71
2024/04/08 00:35:37;;;;;;;4.88;1.55;;;17.10;99.90;;;;;;5068011;28;20532;-70
2024/04/08 00:38:03;;;;;;;5.20;1.40;;;17.00;99.90;;;;;;5066273;28;20040;-70
2024/04/08 00:40:37;;;;;;;3.33;1.40;;;17.00;99.90;;;;;;5050257;28;20056;-70
2024/04/08 00:43:03;;;;;;;4.22;1.30;;;16.90;99.90;;;;;;5070724;28;20793;-70
2024/04/08 00:45:29;;;;;;;6.88;1.33;;;16.90;99.90;;;;;;5063230;28;20604;-71
2024/04/08 00:47:55;;;;;;;3.55;1.27;;;16.90;99.90;;;;;;5067911;28;20094;-70
2024/04/08 00:50:22;;;;;;;7.28;1.52;;;16.80;99.90;;;;;;5065749;28;20041;-70
2024/04/08 00:52:48;;;;;;;3.25;1.50;;;16.80;99.90;;;;;;5054533;28;20083;-71
2024/04/08 00:55:13;;;;;;;4.55;1.65;;;16.80;99.90;;;;;;5061635;28;20035;-70
2024/04/08 00:57:39;;;;;;;4.78;1.77;;;16.80;99.90;;;;;;5068250;28;20523;-71
2024/04/08 01:00:06;;;;;;;4.85;1.75;;;16.80;99.90;;;;;;5065723;28;20565;-71
2024/04/08 01:02:32;;;;;;;8.18;2.08;;;16.80;99.90;;;;;;5060824;28;20079;-70
2024/04/08 01:04:57;;;;;;;5.78;1.50;;;16.80;99.90;;;;;;5072291;28;20051;-71
2024/04/08 01:07:23;;;;;;;3.15;1.27;;;16.80;99.90;;;;;;5064370;28;20033;-71
2024/04/08 01:09:49;;;;;;;5.78;1.55;;;16.80;99.90;;;;;;5069896;28;20024;-71
2024/04/08 01:12:15;;;;;;;7.72;2.05;;;16.70;99.90;;;;;;5063235;28;20049;-70
2024/04/08 01:14:40;;;;;;;5.03;1.75;;;16.70;99.90;;;;;;5063178;28;20044;-71
2024/04/08 01:17:07;;;;;;;7.18;1.60;;;16.80;99.90;;;;;;5063763;28;20044;-71
2024/04/08 01:19:32;;;;;;;6.20;1.73;;;16.70;99.90;;;;;;5063909;28;20036;-71
2024/04/08 01:21:59;;;;;;;6.28;1.67;;;16.50;99.90;;;;;;5060088;28;20082;-70
2024/04/08 01:24:26;;;;;;;8.38;2.35;;;16.40;99.90;;;;;;5065398;28;20032;-71
2024/04/08 01:26:52;;;;;;;4.88;1.90;;;16.50;99.90;;;;;;5057422;28;20159;-70
2024/04/08 01:29:17;;;;;;;5.93;2.08;;;16.50;99.90;;;;;;5061610;28;20104;-71
2024/04/08 01:31:43;;;;;;;12.23;2.15;;;16.50;99.90;;;;;;5065145;28;20028;-71
2024/04/08 01:34:09;;;;;;;5.05;1.85;;;16.50;99.90;;;;;;5060484;28;20043;-70
2024/04/08 01:36:34;;;;;;;8.13;1.98;;;16.50;99.90;;;;;;5066541;28;20028;-70
2024/04/08 01:39:00;;;;;;;6.03;1.67;;;16.60;99.90;;;;;;5071114;28;20040;-71
2024/04/08 01:41:25;;;;;;;15.32;2.10;;;16.60;99.90;;;;;;5061944;28;20823;-70
2024/04/08 01:43:51;;;;;;;9.27;1.95;;;16.60;99.90;;;;;;5063619;28;20039;-71
2024/04/08 01:46:17;;;;;;;5.57;1.65;;;16.60;99.90;;;;;;5060430;28;20591;-70
2024/04/08 01:48:42;;;;;;;11.52;1.80;;;16.60;99.90;;;;;;5073474;28;20088;-70
2024/04/08 01:51:09;;;;;;;3.92;1.50;;;16.60;99.90;;;;;;5057446;28;20421;-71
2024/04/08 01:53:35;;;;;;;7.50;1.63;;;16.60;99.90;;;;;;5062357;28;20086;-71
2024/04/08 01:56:00;;;;;;;6.97;2.30;;;16.60;99.90;;;;;;5065662;28;20048;-71
2024/04/08 01:58:26;;;;;;;6.05;1.80;;;16.60;99.90;;;;;;5063464;28;20035;-70
2024/04/08 02:00:51;;;;;;;5.45;1.75;;;16.60;99.90;;;;;;5055995;28;20120;-70
2024/04/08 02:03:17;;;;;;;8.95;2.00;;;16.60;99.90;;;;;;5068331;28;20132;-71
2024/04/08 02:05:45;;;;;;;6.15;2.00;;;16.50;99.90;;;;;;5068090;28;20118;-71
2024/04/08 02:08:11;;;;;;;19.02;4.45;;;16.50;99.90;;;;;;5055825;28;20036;-71
2024/04/08 02:10:37;;;;;;;4.18;1.80;;;16.50;99.90;;;;;;5065473;28;20412;-71
2024/04/08 02:13:02;;;;;;;6.93;1.80;;;16.40;99.90;;;;;;5069070;28;20122;-71
2024/04/08 02:15:28;;;;;;;5.55;1.88;;;16.30;99.90;;;;;;5065385;28;20029;-70
2024/04/08 02:17:53;;;;;;;4.35;1.60;;;16.30;99.90;;;;;;5066879;28;20036;-70
2024/04/08 02:20:19;;;;;;;8.80;2.95;;;16.30;99.90;;;;;;5073939;28;20052;-70
2024/04/08 02:22:45;;;;;;;6.10;2.05;;;16.20;99.90;;;;;;5073737;28;20040;-71
2024/04/08 02:25:10;;;;;;;7.28;1.98;;;16.10;99.90;;;;;;5058098;28;20197;-71
2024/04/08 02:27:36;;;;;;;8.90;2.20;;;16.10;99.90;;;;;;5069005;28;20035;-71
2024/04/08 02:30:02;;;;;;;5.07;1.92;;;16.10;99.90;;;;;;5064152;28;20039;-70
2024/04/08 02:32:28;;;;;;;7.00;1.88;;;16.00;99.90;;;;;;5072653;28;20032;-71
2024/04/08 02:34:53;;;;;;;5.13;2.05;;;16.00;99.90;;;;;;5071499;28;20078;-70
2024/04/08 02:37:19;;;;;;;7.18;1.90;;;16.00;99.90;;;;;;5067353;28;20033;-70
2024/04/08 02:39:44;;;;;;;5.55;1.67;;;16.00;99.90;;;;;;5074923;28;20440;-70
2024/04/08 02:42:10;;;;;;;5.43;1.85;;;16.00;99.90;;;;;;5075715;28;20033;-70
2024/04/08 02:44:36;;;;;;;12.15;2.00;;;16.00;99.90;;;;;;5072537;28;20040;-70
2024/04/08 02:47:01;;;;;;;5.00;2.17;;;16.00;99.90;;;;;;5068428;28;20038;-70
2024/04/08 02:49:27;;;;;;;11.00;2.97;;;16.00;99.90;;;;;;5077173;28;20108;-70
2024/04/08 02:51:55;;;;;;;3.83;1.63;;;15.90;99.90;;;;;;5066612;28;20038;-70
2024/04/08 02:54:20;;;;;;;8.90;2.05;;;16.00;99.90;;;;;;5068120;28;20191;-70
2024/04/08 02:56:48;;;;;;;3.97;1.70;;;15.90;99.90;;;;;;5075954;28;20565;-71
2024/04/08 02:59:14;;;;;;;5.00;1.75;;;15.80;99.90;;;;;;5072261;28;20041;-71
2024/04/08 03:01:40;;;;;;;5.10;1.88;;;15.70;99.90;;;;;;5066798;28;20051;-71
2024/04/08 03:04:05;;;;;;;7.97;1.88;;;15.70;99.90;;;;;;5069977;28;20560;-71
2024/04/08 03:06:32;;;;;;;3.58;1.58;;;15.70;99.90;;;;;;5046685;28;20035;-71
2024/04/08 03:08:58;;;;;;;3.88;1.80;;;15.70;99.90;;;;;;5066565;28;20043;-71
2024/04/08 03:11:23;;;;;;;5.35;1.42;;;15.70;99.90;;;;;;5065724;28;20037;-72
2024/04/08 03:13:50;;;;;;;8.15;2.33;;;15.60;99.90;;;;;;5070344;28;20041;-70
2024/04/08 03:16:16;;;;;;;5.13;1.83;;;15.60;99.90;;;;;;5066758;28;20027;-71
2024/04/08 03:18:42;;;;;;;10.20;1.88;;;15.40;99.90;;;;;;5071494;28;20028;-72
2024/04/08 03:21:07;;;;;;;5.05;1.88;;;15.50;99.90;;;;;;5067693;28;20036;-71
2024/04/08 03:23:33;;;;;;;10.57;2.10;;;15.40;99.90;;;;;;5071934;28;20035;-71
2024/04/08 03:26:03;;;;;;;9.45;2.42;;;15.50;99.90;;;;;;5074263;28;20528;-71
2024/04/08 03:28:30;;;;;;;6.15;2.20;;;15.40;99.90;;;;;;5062799;28;20078;-71
2024/04/08 03:30:56;;;;;;;4.57;1.55;;;15.40;99.90;;;;;;5063231;28;20068;-71
2024/04/08 03:33:25;;;;;;;5.50;2.05;;;15.40;99.90;;;;;;5076971;28;20029;-72
2024/04/08 03:35:51;;;;;;;;;;;15.40;99.90;;;;;;5063188;28;20579;-72
2024/04/08 03:38:17;;;;;;;9.20;1.83;;;15.40;99.90;;;;;;5066142;28;19963;-71
2024/04/08 03:40:43;;;;;;;3.25;1.70;;;15.30;99.90;;;;;;5062690;28;20036;-71
2024/04/08 03:43:10;;;;;;;11.85;3.88;;;15.40;99.90;;;;;;5063167;28;20043;-71
2024/04/08 03:45:37;;;;;;;7.38;2.53;;;15.40;99.90;;;;;;5064922;28;20052;-72
2024/04/08 03:48:03;;;;;;;8.47;2.00;;;15.30;99.90;;;;;;5063761;28;20037;-71
2024/04/08 03:50:30;;;;;;;6.05;1.77;;;15.30;99.90;;;;;;5063809;28;20261;-71
2024/04/08 03:52:56;;;;;;;4.80;2.00;;;15.30;99.90;;;;;;5060891;28;20064;-72
2024/04/08 03:55:28;;;;;;;4.35;1.77;;;15.30;99.90;;;;;;5072743;28;20051;-72
2024/04/08 03:57:54;;;;;;;4.55;1.83;;;15.30;99.90;;;;;;5063436;28;20027;-71
2024/04/08 04:00:20;;;;;;;13.88;2.10;;;15.30;99.90;;;;;;5065846;28;20033;-71
2024/04/08 04:02:46;;;;;;;9.55;2.60;;;15.20;99.90;;;;;;5065426;28;20123;-71
2024/04/08 04:05:12;;;;;;;7.20;2.42;;;15.20;99.90;;;;;;5071181;28;20115;-71
2024/04/08 04:07:37;;;;;;;8.50;2.55;;;15.30;99.90;;;;;;5064301;28;20479;-72
2024/04/08 04:10:08;;;;;;;6.55;2.13;;;15.20;99.90;;;;;;5067938;28;20029;-72
2024/04/08 04:12:38;;;;;;;5.40;1.85;;;15.20;99.90;;;;;;5064336;28;20036;-72
2024/04/08 04:15:12;;;;;;;8.10;2.08;;;15.20;99.90;;;;;;5059568;28;20036;-71
2024/04/08 04:17:42;;;;;;;6.53;2.10;;;15.30;99.90;;;;;;5064008;28;20127;-71
2024/04/08 04:20:14;;;;;;;3.88;2.25;;;15.30;99.90;;;;;;5066639;28;20518;-71
2024/04/08 04:22:40;;;;;;;4.22;2.47;;;15.30;99.90;;;;;;5068066;28;20541;-71
2024/04/08 04:25:05;;;;;;;10.65;2.60;;;15.30;99.90;;;;;;5069509;28;20082;-72
2024/04/08 04:27:31;;;;;;;4.97;2.38;;;15.30;99.90;;;;;;5065786;28;20113;-71
2024/04/08 04:29:57;;;;;;;7.68;2.45;;;15.20;99.90;;;;;;5065573;28;20421;-71
2024/04/08 04:32:22;;;;;;;5.38;2.15;;;15.20;99.90;;;;;;5064362;28;20037;-72
2024/04/08 04:34:55;;;;;;;5.20;2.42;;;15.30;99.90;;;;;;5058862;28;20029;-71
2024/04/08 04:37:20;;;;;;;8.52;2.95;;;15.20;99.90;;;;;;5064552;28;20152;-71
2024/04/08 04:39:46;;;;;;;6.15;2.40;;;15.20;99.90;;;;;;5071296;28;20115;-65
2024/04/08 04:42:12;;;;;;;8.02;2.67;;;15.20;99.90;;;;;;5063790;28;20041;-65
2024/04/08 04:44:38;;;;;;;10.85;3.05;;;15.30;99.90;;;;;;5070627;28;20028;-65
2024/04/08 04:47:04;;;;;;;10.90;2.15;;;15.20;99.90;;;;;;5065673;28;20028;-65
2024/04/08 04:49:29;;;;;;;8.05;2.50;;;15.30;99.90;;;;;;5064230;28;20032;-66
2024/04/08 04:51:55;;;;;;;6.35;2.45;;;15.30;99.90;;;;;;5058441;28;20028;-65
2024/04/08 04:54:20;;;;;;;5.47;2.47;;;15.30;99.90;;;;;;5065059;28;20078;-66
2024/04/08 04:56:46;;;;;;;9.85;2.95;;;15.30;99.90;;;;;;5061723;28;20048;-66
2024/04/08 04:59:12;;;;;;;7.45;2.15;;;15.30;99.90;;;;;;5055353;28;20486;-66
2024/04/08 05:01:37;;;;;;;12.05;2.08;;;15.30;99.90;;;;;;5062691;28;20033;-66
2024/04/08 05:04:04;;;;;;;6.05;2.13;;;15.20;99.90;;;;;;5054979;28;20035;-65
2024/04/08 05:06:30;;;;;;;9.52;2.90;;;15.30;99.90;;;;;;5043105;28;20111;-65
2024/04/08 05:08:57;;;;;;;5.10;2.15;;;15.30;99.90;;;;;;5064670;28;20170;-66
2024/04/08 05:11:23;;;;;;;8.13;1.95;;;15.20;99.90;;;;;;5062342;28;20120;-66
2024/04/08 05:13:48;;;;;;;6.78;2.05;;;15.20;99.90;;;;;;5063422;28;20181;-65
2024/04/08 05:16:14;;;;;;;8.05;1.98;;;15.10;99.90;;;;;;5064734;28;21280;-65
2024/04/08 05:18:40;;;;;;;6.78;2.30;;;15.10;99.90;;;;;;5065182;28;20528;-65
2024/04/08 05:21:05;;;;;;;5.10;2.38;;;15.10;99.90;;;;;;5065660;28;20618;-66
2024/04/08 05:23:31;;;;;;;4.97;2.00;;;15.10;99.90;;;;;;5067143;28;20528;-65
2024/04/08 05:25:57;;;;;;;7.30;2.35;;;15.10;99.90;;;;;;5064397;28;20043;-65
2024/04/08 05:28:23;;;;;;;2.65;1.80;;;15.10;99.90;;;;;;5070500;28;20101;-65
2024/04/08 05:30:49;;;;;;;4.20;2.25;;;15.10;99.90;;;;;;5066017;28;20107;-65
2024/04/08 05:33:16;;;;;;;8.35;1.77;;;15.10;99.90;;;;;;5062579;28;20025;-65
2024/04/08 05:35:44;;;;;;;6.63;2.08;;;15.10;99.90;;;;;;5059117;28;20036;-66
2024/04/08 05:38:10;;;;;;;7.47;2.45;;;15.10;99.90;;;;;;5060224;28;20029;-65
2024/04/08 05:40:37;;;;;;;5.05;1.98;;;15.00;99.90;;;;;;5066025;28;20092;-65
2024/04/08 05:43:03;;;;;;;6.80;1.92;;;15.00;99.90;;;;;;5062981;28;20111;-64
2024/04/08 05:45:29;;;;;;;6.75;2.30;;;15.00;99.90;;;;;;5069675;28;20083;-65
2024/04/08 05:47:55;;;;;;;3.47;1.75;;;15.00;99.90;;;;;;5075929;28;20508;-66
2024/04/08 05:50:21;;;;;;;4.82;2.35;;;15.10;99.90;;;;;;5059405;28;20033;-65
2024/04/08 05:52:47;;;;;;;9.60;2.33;;;15.10;99.90;;;;;;5059960;28;20439;-66
2024/04/08 05:55:13;;;;;;;11.75;2.63;;;15.10;99.90;;;;;;5065811;28;20028;-65
2024/04/08 05:57:39;;;;;;;8.00;3.10;;;15.10;99.90;;;;;;5062428;28;20041;-64
2024/04/08 06:00:05;;;;;;;8.23;2.28;;;15.10;99.90;;;;;;5064452;28;20404;-65
2024/04/08 06:02:31;;;;;;;7.95;2.38;;;15.10;99.90;;;;;;5062775;28;20098;-64
2024/04/08 06:04:57;;;;;;;5.35;2.45;;;15.10;99.90;;;;;;5060502;28;20037;-65
2024/04/08 06:07:23;;;;;;;9.00;2.60;;;15.10;99.90;;;;;;5055487;28;20032;-65
2024/04/08 06:09:49;;;;;;;4.13;1.90;;;15.00;99.90;;;;;;5068107;28;20380;-66
2024/04/08 06:12:14;;;;;;;5.03;1.85;;;14.90;99.90;;;;;;5063301;28;20040;-65
2024/04/08 06:14:40;;;;;;;3.42;2.03;;;15.00;99.90;;;;;;5065155;28;20036;-66
2024/04/08 06:17:06;;;;;;;5.05;2.00;;;15.00;99.90;;;;;;5060862;28;20032;-66
2024/04/08 06:19:32;;;;;;;6.60;1.80;;;15.00;99.90;;;;;;5064136;28;20118;-65
2024/04/08 06:21:57;;;;;;;9.27;1.60;;;15.00;99.90;;;;;;5067961;28;20064;-65
2024/04/08 06:24:24;;;;;;;7.72;1.80;;;15.00;99.90;;;;;;5061156;28;20036;-65
2024/04/08 06:26:50;;;;;;;6.70;2.25;;;15.00;99.90;;;;;;5059019;28;20098;-65
2024/04/08 06:29:16;;;;;;;4.43;1.88;;;15.00;99.90;;;;;;5063595;28;20031;-66
2024/04/08 06:31:42;;;;;;;6.45;1.70;;;15.00;99.90;;;;;;5062928;28;20052;-65
2024/04/08 06:34:08;;;;;;;7.35;1.85;;;15.10;99.90;;;;;;5058608;28;20060;-65
2024/04/08 06:36:35;;;;;;;3.67;1.77;;;15.10;99.90;;;;;;5065250;28;20043;-65
2024/04/08 06:39:01;;;;;;;4.38;1.95;;;15.10;99.90;;;;;;5057686;28;20155;-65
2024/04/08 06:41:27;;;;;;;4.70;1.75;;;15.20;99.90;;;;;;5062411;28;20043;-65
2024/04/08 06:43:52;;;;;;;4.97;2.42;;;15.20;99.90;;;;;;5062826;28;20044;-66
2024/04/08 06:46:18;;;;;;;8.38;2.33;;;15.30;99.90;;;;;;5061975;28;20033;-66
2024/04/08 06:48:44;;;;;;;5.10;2.15;;;15.20;99.90;;;;;;5072299;28;20021;-65
2024/04/08 06:51:09;;;;;;;5.40;2.00;;;15.20;99.90;;;;;;5066460;28;20063;-66
2024/04/08 06:53:35;;;;;;;5.78;2.28;;;15.30;99.90;;;;;;5070439;28;20132;-65
2024/04/08 06:56:00;;;;;;;5.13;2.67;;;15.30;99.90;;;;;;5068006;28;20118;-65
2024/04/08 06:58:26;;;;;;;8.65;3.15;;;15.40;99.90;;;;;;5069006;28;20040;-65
2024/04/08 07:00:52;;;;;;;10.05;3.17;;;15.40;99.90;;;;;;5065883;28;20106;-66
2024/04/08 07:03:17;;;;;;;8.38;3.25;;;15.40;99.90;;;;;;5071794;28;20040;-66
2024/04/08 07:05:45;;;;;;;7.90;2.78;;;15.50;99.90;;;;;;5072976;28;20048;-65
2024/04/08 07:08:10;;;;;;;7.97;2.78;;;15.50;99.90;;;;;;5072494;28;20033;-65
2024/04/08 07:10:36;;;;;;;8.20;2.20;;;15.40;99.90;;;;;;5076385;28;20047;-65
2024/04/08 07:13:02;;;;;;;9.02;3.15;;;15.50;99.90;;;;;;5070364;28;20028;-65
2024/04/08 07:15:28;;;;;;;8.70;2.42;;;15.60;99.90;;;;;;5076098;28;20626;-65
2024/04/08 07:17:54;;;;;;;5.57;2.15;;;15.60;99.90;;;;;;5072976;28;20048;-66
2024/04/08 07:20:20;;;;;;;5.35;1.90;;;15.60;99.90;;;;;;5072724;28;20040;-65
2024/04/08 07:22:46;;;;;;;11.15;2.20;;;15.60;99.90;;;;;;5071710;28;20070;-65
2024/04/08 07:25:12;;;;;;;9.40;3.40;;;15.70;99.90;;;;;;5076265;28;20044;-65
2024/04/08 07:27:38;;;;;;;6.95;2.08;;;15.70;99.90;;;;;;5071188;28;20071;-65
2024/04/08 07:30:04;;;;;;;7.05;2.33;;;15.70;99.90;;;;;;5073724;28;20075;-65
2024/04/08 07:32:30;;;;;;;6.10;2.08;;;15.80;99.90;;;;;;5071714;28;20025;-65
2024/04/08 07:34:56;;;;;;;7.15;2.20;;;15.80;99.90;;;;;;5068920;28;20627;-65
2024/04/08 07:37:22;;;;;;;4.97;1.90;;;15.90;99.90;;;;;;5076019;28;20036;-66
2024/04/08 07:39:48;;;;;;;3.80;1.67;;;15.90;99.90;;;;;;5078172;28;20039;-66
2024/04/08 07:42:14;;;;;;;4.28;2.10;;;15.90;99.90;;;;;;5073266;28;20044;-66
2024/04/08 07:44:39;;;;;;;10.50;2.63;;;16.00;99.90;;;;;;5065624;28;20029;-66
2024/04/08 07:47:05;;;;;;;5.55;2.15;;;16.00;99.90;;;;;;5070091;28;20529;-65
2024/04/08 07:49:31;;;;;;;7.15;2.97;;;16.00;99.90;;;;;;5073099;28;20798;-65
2024/04/08 07:51:56;;;;;;;6.93;2.17;;;16.00;99.90;;;;;;5064692;28;20037;-65
2024/04/08 07:54:22;;;;;;;3.83;2.38;;;16.00;99.90;;;;;;5071348;28;20167;-66
2024/04/08 07:56:48;;;;;;;8.27;2.03;;;16.00;99.90;;;;;;5064512;28;20044;-65
2024/04/08 07:59:13;;;;;;;7.50;2.30;;;16.00;99.90;;;;;;5066615;28;20036;-65
2024/04/08 08:01:39;;;;;;;9.93;2.70;;;16.00;99.90;;;;;;5068300;28;20626;-66
2024/04/08 08:04:05;;;;;;;10.07;3.15;;;16.00;99.90;;;;;;5065699;28;20020;-65
2024/04/08 08:06:30;;;;;;;13.18;2.80;;;16.10;99.90;;;;;;5062021;28;20024;-65
2024/04/08 08:08:56;;;;;;;7.97;3.28;;;16.10;99.90;;;;;;5068228;28;20524;-65
2024/04/08 08:11:22;;;;;;;5.60;2.78;;;16.10;99.90;;;;;;5064880;28;20036;-66
2024/04/08 08:13:47;;;;;;;23.98;4.40;;;16.20;99.90;;;;;;5068059;28;20047;-65
2024/04/08 08:16:13;;;;;;;8.77;3.80;;;16.20;99.90;;;;;;5063203;28;20028;-66
2024/04/08 08:18:38;;;;;;;9.10;4.90;;;16.20;99.90;;;;;;5064961;28;20029;-65
2024/04/08 08:21:06;;;;;;;12.15;5.47;;;16.20;99.90;;;;;;5062171;28;20035;-66
2024/04/08 08:23:31;;;;;;;12.18;6.00;;;16.30;99.90;;;;;;5062741;28;20043;-65
2024/04/08 08:25:58;;;;;;;18.50;8.68;;;16.30;99.90;;;;;;5071954;28;20043;-65
2024/04/08 08:28:24;;;;;;;21.85;12.07;;;16.40;99.90;;;;;;5064416;28;20033;-67
2024/04/08 08:30:50;;;;;;;19.65;13.07;;;16.50;99.90;;;;;;5064419;28;20175;-66
2024/04/08 08:33:16;;;;;;;20.40;12.38;;;16.60;99.90;;;;;;5069218;28;20386;-66
2024/04/08 08:35:41;;;;;;;17.50;11.02;;;16.60;99.90;;;;;;5061786;28;20044;-65
2024/04/08 08:38:07;;;;;;;21.83;13.20;;;16.80;99.90;;;;;;5058519;28;20032;-65
2024/04/08 08:41:04;;;;;;;24.45;12.50;;;16.80;99.90;;;;;;5067691;28;20036;-67
2024/04/08 08:43:31;;;;;;;30.75;15.20;;;16.90;99.90;;;;;;5067761;28;20040;-66
2024/04/08 08:45:57;;;;;;;26.27;14.07;;;16.90;99.90;;;;;;5081187;28;20580;-65
2024/04/08 08:48:23;;;;;;;23.40;13.98;;;17.00;99.90;;;;;;5055999;28;20062;-66
2024/04/08 08:50:49;;;;;;;25.85;15.20;;;17.00;99.90;;;;;;5053794;28;20107;-66
2024/04/08 08:53:15;;;;;;;26.50;15.98;;;17.10;99.90;;;;;;5055549;28;20044;-66
2024/04/08 08:55:41;;;;;;;29.58;15.90;;;17.10;99.90;;;;;;5057422;28;20041;-65
2024/04/08 08:58:10;;;;;;;26.83;15.15;;;17.10;99.90;;;;;;5050386;28;20061;-65
2024/04/08 09:00:38;;;;;;;;;;;17.30;99.90;;;;;;5062036;28;20031;-65
2024/04/08 09:03:09;;;;;;;33.35;17.45;;;17.40;99.90;;;;;;5057728;28;19924;-66
2024/04/08 09:05:34;;;;;;;28.33;16.90;;;17.50;99.90;;;;;;5055477;28;20504;-65
2024/04/08 09:08:00;;;;;;;24.02;14.65;;;17.70;99.90;;;;;;5053715;28;20033;-65
2024/04/08 09:10:40;;;;;;;25.98;14.20;;;17.70;99.90;;;;;;5053109;28;20036;-65
2024/04/08 09:13:26;;;;;;;24.60;14.77;;;17.70;99.90;;;;;;5060084;28;20032;-66
2024/04/08 09:15:52;;;;;;;25.42;16.00;;;17.80;99.90;;;;;;5066285;28;20024;-66
2024/04/08 09:18:19;;;;;;;23.55;14.77;;;17.90;99.90;;;;;;5064040;28;20044;-66
2024/04/08 09:20:45;;;;;;;26.93;15.10;;;18.00;99.90;;;;;;5058683;28;20580;-66
2024/04/08 09:23:11;;;;;;;23.80;15.55;;;18.10;99.90;;;;;;5058914;28;20163;-66
2024/04/08 09:25:37;;;;;;;24.63;14.77;;;18.10;99.90;;;;;;5057044;28;20139;-65
2024/04/08 09:28:03;;;;;;;25.30;13.68;;;18.30;99.90;;;;;;5065179;28;20037;-65
2024/04/08 09:30:29;;;;;;;22.45;14.10;;;18.50;99.90;;;;;;5065160;28;20036;-65
2024/04/08 09:32:55;;;;;;;21.25;13.38;;;18.50;99.90;;;;;;5067468;28;20035;-67
2024/04/08 09:35:21;;;;;;;20.73;14.25;;;18.60;99.90;;;;;;5059201;28;20041;-66
2024/04/08 09:37:54;;;;;;;25.50;14.77;;;18.60;99.90;;;;;;5059255;28;20088;-66
2024/04/08 09:40:24;;;;;;;24.17;14.13;;;18.70;99.90;;;;;;5053599;28;20112;-66
2024/04/08 09:42:51;;;;;;;25.35;14.25;;;18.70;99.90;;;;;;5054978;28;20378;-66
2024/04/08 09:45:18;;;;;;;23.17;14.27;;;18.70;99.90;;;;;;5064509;28;20033;-65
2024/04/08 09:47:45;;;;;;;33.03;17.13;;;18.90;99.90;;;;;;5062894;28;20062;-66
2024/04/08 09:50:12;;;;;;;27.77;15.63;;;19.00;99.90;;;;;;5061157;28;20116;-67
2024/04/08 09:52:41;;;;;;;25.30;14.13;;;19.10;99.90;;;;;;5058348;28;20047;-66
2024/04/08 09:55:09;;;;;;;21.75;13.13;;;19.20;99.90;;;;;;5057681;28;20174;-66
2024/04/08 09:57:39;;;;;;;;;;;19.40;99.90;;;;;;5061204;28;20043;-65
2024/04/08 10:00:12;;;;;;;28.48;14.80;;;19.50;99.90;;;;;;5061827;28;20377;-66
2024/04/08 10:02:41;;;;;;;23.10;13.00;;;19.60;99.90;;;;;;5059894;28;20432;-66
2024/04/08 10:05:07;;;;;;;19.58;13.23;;;19.70;99.90;;;;;;5055695;28;20083;-65
2024/04/08 10:07:34;;;;;;;23.42;13.30;;;19.70;99.90;;;;;;5060023;28;20036;-67
2024/04/08 10:10:01;;;;;;;27.50;14.47;;;19.60;99.90;;;;;;5060635;28;20133;-65
2024/04/08 10:12:36;;;;;;;25.75;13.30;;;19.70;99.90;;;;;;5059204;28;20075;-66
2024/04/08 10:15:12;;;;;;;29.38;14.38;;;19.80;99.90;;;;;;5056246;28;20040;-67
2024/04/08 10:17:45;;;;;;;33.28;16.38;;;20.00;99.90;;;;;;5060354;28;20038;-66
2024/04/08 10:20:19;;;;;;;28.27;15.02;;;20.30;99.90;;;;;;5040590;28;20699;-67
2024/04/08 10:22:45;;;;;;;25.00;13.48;;;20.50;99.90;;;;;;5059740;28;20044;-66
2024/04/08 10:25:34;;;;;;;27.08;12.15;;;20.70;99.90;;;;;;5062308;28;20032;-67
2024/04/08 10:28:18;;;;;;;20.65;11.38;;;21.00;99.90;;;;;;5061068;28;20091;-66
2024/04/08 10:30:50;;;;;;;18.60;11.65;;;21.30;99.90;;;;;;5060874;28;20663;-67
2024/04/08 10:33:16;;;;;;;22.98;11.45;;;21.70;99.90;;;;;;5058766;28;20033;-66
2024/04/08 10:35:42;;;;;;;24.35;10.75;;;21.80;99.90;;;;;;5062293;28;20401;-66
2024/04/08 10:38:08;;;;;;;15.45;10.13;;;21.90;99.90;;;;;;5064533;28;20039;-67
2024/04/08 10:40:34;;;;;;;20.77;9.20;;;22.10;99.90;;;;;;5061967;28;20032;-67
2024/04/08 10:42:59;;;;;;;14.57;7.97;;;22.30;99.90;;;;;;5062576;28;20025;-66
2024/04/08 10:45:25;;;;;;;14.70;8.32;;;22.30;99.90;;;;;;5037509;28;20036;-67
2024/04/08 10:47:58;;;;;;;16.40;9.15;;;22.80;99.90;;;;;;5067452;28;20040;-67
2024/04/08 10:50:24;;;;;;;17.15;8.07;;;23.10;99.90;;;;;;5060744;28;20033;-66
2024/04/08 10:52:50;;;;;;;17.40;8.05;;;23.00;99.90;;;;;;5060587;28;20029;-67
2024/04/08 10:55:16;;;;;;;21.40;8.75;;;23.00;99.90;;;;;;5066002;28;20382;-67
2024/04/08 10:57:41;;;;;;;19.35;7.80;;;23.50;99.90;;;;;;5061056;28;20497;-68
2024/04/08 11:00:07;;;;;;;14.77;8.05;;;23.50;99.90;;;;;;5063170;28;20115;-67
2024/04/08 11:02:33;;;;;;;15.80;8.38;;;23.50;99.90;;;;;;5067257;28;20538;-67
2024/04/08 11:05:03;;;;;;;17.90;8.95;;;23.40;99.90;;;;;;5063832;28;20032;-67
2024/04/08 11:07:35;;;;;;;13.10;8.27;;;23.50;99.10;;;;;;5063566;28;20081;-68
2024/04/08 11:10:12;;;;;;;18.75;8.23;;;23.50;99.80;;;;;;5062234;28;20115;-67
2024/04/08 11:12:37;;;;;;;16.25;8.15;;;23.70;99.90;;;;;;5069579;28;20055;-67
2024/04/08 11:15:04;;;;;;;16.02;7.35;;;24.30;99.40;;;;;;5059349;28;20524;-67
2024/04/08 11:17:31;;;;;;;14.00;8.27;;;24.40;98.80;;;;;;5069007;28;20044;-66
2024/04/08 11:19:57;;;;;;;20.42;8.45;;;24.20;98.80;;;;;;5061179;28;20043;-66
2024/04/08 11:22:23;;;;;;;15.85;7.65;;;24.30;98.80;;;;;;5062995;28;20052;-67
2024/04/08 11:24:48;;;;;;;14.65;7.72;;;24.40;98.60;;;;;;5073215;28;20606;-66
2024/04/08 11:27:16;;;;;;;20.45;8.00;;;24.70;98.70;;;;;;5062791;28;20029;-66
2024/04/08 11:29:45;;;;;;;13.35;7.22;;;24.60;98.20;;;;;;5062060;28;20147;-67
2024/04/08 11:32:13;;;;;;;18.20;7.47;;;24.60;98.10;;;;;;5063455;28;20140;-67
2024/04/08 11:34:43;;;;;;;17.85;7.15;;;24.70;98.10;;;;;;5070134;28;20598;-67
2024/04/08 11:37:12;;;;;;;14.75;6.88;;;24.90;97.40;;;;;;5064860;28;20055;-67
2024/04/08 11:39:42;;;;;;;16.92;7.10;;;24.60;97.80;;;;;;5060525;28;20395;-66
2024/04/08 11:42:08;;;;;;;10.48;5.97;;;24.90;98.20;;;;;;5066450;28;20144;-67
2024/04/08 11:44:38;;;;;;;12.75;6.25;;;25.10;97.60;;;;;;5059451;28;20040;-67
2024/04/08 11:47:04;;;;;;;14.45;6.88;;;25.10;96.50;;;;;;5049571;28;20438;-66
2024/04/08 11:49:31;;;;;;;12.77;6.22;;;24.80;96.60;;;;;;5066910;28;20031;-67
2024/04/08 11:51:57;;;;;;;12.77;6.90;;;24.80;96.70;;;;;;5068981;28;20060;-66
2024/04/08 11:54:23;;;;;;;18.42;7.55;;;24.90;96.80;;;;;;5070984;28;20132;-67
2024/04/08 11:56:49;;;;;;;13.00;6.38;;;25.10;97.10;;;;;;5066073;28;20036;-66
2024/04/08 11:59:15;;;;;;;10.95;5.93;;;25.30;96.90;;;;;;5062697;28;20044;-67
2024/04/08 12:01:42;;;;;;;11.45;5.97;;;25.50;96.70;;;;;;5064557;28;20556;-66
2024/04/08 12:04:07;;;;;;;16.57;6.70;;;25.80;96.80;;;;;;5076238;28;20444;-67
2024/04/08 12:06:33;;;;;;;16.65;5.93;;;26.20;96.50;;;;;;5063422;28;20035;-67
2024/04/08 12:08:58;;;;;;;14.43;5.65;;;26.30;96.00;;;;;;5061542;28;20033;-66
2024/04/08 12:11:24;;;;;;;10.98;5.05;;;26.20;95.90;;;;;;5067980;28;20182;-67
2024/04/08 12:13:50;;;;;;;10.60;4.60;;;26.40;95.60;;;;;;5043761;28;20029;-67
2024/04/08 12:16:16;;;;;;;10.60;4.15;;;26.70;95.00;;;;;;5063495;28;20146;-67
2024/04/08 12:18:43;;;;;;;13.05;4.72;;;26.90;94.20;;;;;;5065653;28;20052;-68
2024/04/08 12:21:09;;;;;;;15.30;4.32;;;27.00;93.10;;;;;;5065162;28;20059;-67
2024/04/08 12:23:35;;;;;;;20.77;4.15;;;27.10;92.10;;;;;;5062872;28;20167;-66
2024/04/08 12:26:00;;;;;;;9.55;3.55;;;27.00;92.50;;;;;;5065107;28;20184;-67
2024/04/08 12:28:26;;;;;;;13.52;3.92;;;26.90;91.90;;;;;;5062778;28;20036;-66
2024/04/08 12:30:53;;;;;;;9.35;3.65;;;26.50;90.70;;;;;;5064382;28;20036;-68
2024/04/08 12:33:19;;;;;;;12.00;4.18;;;26.20;91.60;;;;;;5072816;28;20075;-67
2024/04/08 12:35:45;;;;;;;8.48;4.43;;;25.80;91.80;;;;;;5062715;28;20047;-66
2024/04/08 12:38:13;;;;;;;14.48;4.72;;;26.00;93.00;;;;;;5069298;28;20028;-66
2024/04/08 12:40:39;;;;;;;12.25;4.15;;;26.60;91.90;;;;;;5063638;28;20089;-67